Bradley, Maine
Current Conditions -  °F | °C
As of 1:53 PM on Friday 21 Nov 2014 (Local Time) from KBGR Reporting Station
Scattered Clouds Scattered Clouds  
Wind Chill: 16°   Ceiling: Unl
Heat Index: 29°   Visibility: 10mi
Dew Point:   Wind: 21mph
Humidity: 40%   Direction: 310°NW
Pressure: 30"   Gusts: 28mph
Location:  44.92°N, 68.63°W
Report Text: KBGR 211853Z 31018G24KT 10SM SCT050 M02/M14 A3000 RMK AO2 SLP162 T10171139
Loading
Personal Weather Stations






























Interactive Weather Map New forecast layout! Learn more

10-Day Weather Forecast

Advertisements
Track Severe Weather on mobile